Time;durP1;ratioP1;P1;durP2;ratioP2;P2;SDS_P1;SDS_P2;PMS_P1;PMS_P2;Temp;Humidity;BMP_temperature;BMP_pressure;BME280_temperature;BME280_humidity;BME280_pressure;Samples;Min_cycle;Max_cycle;Signal;HPM_P1;HPM_P2
2022/07/27 00:01:49;;;;;;;0.10;0.10;;;15.20;99.90;;;;;;5072408;28;20466;-93
2022/07/27 00:04:14;;;;;;;0.20;0.20;;;15.20;99.90;;;;;;5063320;28;20047;-92
2022/07/27 00:06:40;;;;;;;0.20;0.20;;;15.20;99.90;;;;;;5069141;28;20088;-93
2022/07/27 00:09:06;;;;;;;0.20;0.20;;;15.20;99.90;;;;;;5058710;28;20248;-93
2022/07/27 00:11:31;;;;;;;0.20;0.20;;;15.30;99.90;;;;;;5055405;28;20041;-94
2022/07/27 00:13:57;;;;;;;0.10;0.10;;;15.20;99.90;;;;;;5080768;28;20053;-93
2022/07/27 00:16:22;;;;;;;0.20;0.20;;;15.30;99.90;;;;;;5081772;28;20369;-94
2022/07/27 00:18:48;;;;;;;0.20;0.20;;;15.20;99.90;;;;;;5065441;28;20052;-94
2022/07/27 00:21:14;;;;;;;0.20;0.20;;;15.20;99.90;;;;;;5061392;28;20045;-93
2022/07/27 00:23:40;;;;;;;0.20;0.20;;;15.20;99.90;;;;;;5060402;28;20454;-94
2022/07/27 00:26:06;;;;;;;0.20;0.20;;;15.30;99.90;;;;;;5070908;28;20041;-96
2022/07/27 00:28:32;;;;;;;0.20;0.20;;;15.30;99.90;;;;;;5074338;28;20051;-93
2022/07/27 00:30:57;;;;;;;0.20;0.20;;;15.30;99.90;;;;;;5070484;28;20044;-94
2022/07/27 00:33:29;;;;;;;0.20;0.20;;;15.30;99.90;;;;;;5067410;28;20396;-94
2022/07/27 00:35:55;;;;;;;0.20;0.20;;;15.30;99.90;;;;;;5075159;28;20051;-92
2022/07/27 00:38:20;;;;;;;0.20;0.20;;;15.20;99.90;;;;;;5065983;28;20411;-92
2022/07/27 00:40:46;;;;;;;0.15;0.15;;;15.30;99.90;;;;;;5069658;28;20063;-94
2022/07/27 00:43:12;;;;;;;0.20;0.20;;;15.30;99.90;;;;;;5059474;28;20064;-93
2022/07/27 00:45:38;;;;;;;0.17;0.17;;;15.20;99.90;;;;;;5060322;28;20123;-93
2022/07/27 00:48:04;;;;;;;0.20;0.20;;;15.20;99.90;;;;;;5077823;28;20064;-93
2022/07/27 00:50:30;;;;;;;0.20;0.20;;;15.20;99.90;;;;;;5081754;28;20029;-94
2022/07/27 00:52:56;;;;;;;0.20;0.20;;;15.20;99.90;;;;;;5073418;28;20577;-91
2022/07/27 00:55:22;;;;;;;0.15;0.15;;;15.20;99.90;;;;;;5060736;28;20131;-94
2022/07/27 00:57:48;;;;;;;0.10;0.10;;;15.10;99.90;;;;;;5055642;28;20140;-93
2022/07/27 01:00:14;;;;;;;0.10;0.10;;;15.10;99.90;;;;;;5061926;28;20507;-92
2022/07/27 01:02:39;;;;;;;0.17;0.17;;;15.00;99.90;;;;;;5089273;28;20119;-91
2022/07/27 01:05:05;;;;;;;0.20;0.20;;;15.00;99.90;;;;;;5075520;28;20136;-92
2022/07/27 01:07:31;;;;;;;0.20;0.20;;;15.00;99.90;;;;;;5082125;28;20048;-93
2022/07/27 01:09:58;;;;;;;0.20;0.20;;;15.00;99.90;;;;;;5066836;28;20112;-93
2022/07/27 01:12:31;;;;;;;0.20;0.20;;;14.90;99.90;;;;;;5074257;28;20138;-91
2022/07/27 01:15:03;;;;;;;0.10;0.10;;;14.90;99.90;;;;;;5071909;28;20068;-91
2022/07/27 01:17:29;;;;;;;0.20;0.20;;;14.80;99.90;;;;;;5067984;28;20055;-92
2022/07/27 01:19:58;;;;;;;0.20;0.20;;;14.80;99.90;;;;;;5079663;28;20045;-92
2022/07/27 01:22:24;;;;;;;0.20;0.20;;;14.70;99.90;;;;;;5073990;28;20439;-92
2022/07/27 01:24:49;;;;;;;0.20;0.20;;;14.70;99.90;;;;;;5075639;28;20480;-94
2022/07/27 01:27:15;;;;;;;0.10;0.10;;;14.60;99.90;;;;;;5070459;28;20036;-93
2022/07/27 01:29:41;;;;;;;0.10;0.10;;;14.70;99.90;;;;;;5063293;28;20391;-94
2022/07/27 01:32:07;;;;;;;0.10;0.10;;;14.60;99.90;;;;;;5062222;28;20041;-94
2022/07/27 01:34:33;;;;;;;0.20;0.20;;;14.60;99.90;;;;;;5077060;28;20059;-93
2022/07/27 01:37:03;;;;;;;0.20;0.20;;;14.60;99.90;;;;;;5062987;28;20056;-93
2022/07/27 01:39:30;;;;;;;0.20;0.20;;;14.70;99.90;;;;;;5076168;28;20068;-92
2022/07/27 01:41:57;;;;;;;0.10;0.10;;;14.60;99.90;;;;;;5072901;28;20158;-94
2022/07/27 01:44:23;;;;;;;0.20;0.20;;;14.60;99.90;;;;;;5076838;28;20041;-94
2022/07/27 01:46:49;;;;;;;0.10;0.10;;;14.50;99.90;;;;;;5078657;28;20047;-90
2022/07/27 01:49:14;;;;;;;0.20;0.20;;;14.60;99.90;;;;;;5061846;28;20045;-93
2022/07/27 01:51:40;;;;;;;0.17;0.17;;;14.70;99.90;;;;;;5079078;28;20103;-94
2022/07/27 01:54:05;;;;;;;0.20;0.20;;;14.50;99.90;;;;;;5083395;28;20044;-93
2022/07/27 01:56:31;;;;;;;0.20;0.20;;;14.40;99.90;;;;;;5092474;28;20039;-93
2022/07/27 01:58:57;;;;;;;0.20;0.20;;;14.40;99.90;;;;;;5085402;28;20119;-93
2022/07/27 02:01:23;;;;;;;0.20;0.20;;;14.40;99.90;;;;;;5068889;28;20178;-93
2022/07/27 02:03:49;;;;;;;0.20;0.20;;;14.40;99.90;;;;;;5082267;28;20065;-94
2022/07/27 02:06:15;;;;;;;0.17;0.17;;;14.40;99.90;;;;;;5066071;28;20120;-92
2022/07/27 02:08:40;;;;;;;0.20;0.20;;;14.30;99.90;;;;;;5065005;28;20033;-93
2022/07/27 02:13:50;;;;;;;0.20;0.20;;;14.40;99.90;;;;;;5072255;28;20476;-93
2022/07/27 02:16:17;;;;;;;0.10;0.10;;;14.30;99.90;;;;;;5082916;28;20055;-92
2022/07/27 02:18:43;;;;;;;0.20;0.20;;;14.30;99.90;;;;;;5075126;28;20564;-93
2022/07/27 02:21:09;;;;;;;0.20;0.20;;;14.30;99.90;;;;;;5061567;28;20059;-94
2022/07/27 02:23:37;;;;;;;0.20;0.20;;;14.30;99.90;;;;;;5060554;28;20038;-94
2022/07/27 02:26:07;;;;;;;0.20;0.20;;;14.30;99.90;;;;;;5062230;28;20045;-93
2022/07/27 02:28:33;;;;;;;0.20;0.20;;;14.30;99.90;;;;;;5057556;28;20045;-94
2022/07/27 02:31:00;;;;;;;0.20;0.20;;;14.30;99.90;;;;;;5075553;28;20127;-91
2022/07/27 02:33:25;;;;;;;0.20;0.20;;;14.30;99.90;;;;;;5061415;28;20040;-92
2022/07/27 02:35:51;;;;;;;0.17;0.17;;;14.20;99.90;;;;;;5101475;28;20508;-92
2022/07/27 02:38:17;;;;;;;0.20;0.20;;;14.20;99.90;;;;;;5062272;28;20485;-94
2022/07/27 02:40:43;;;;;;;0.20;0.20;;;14.20;99.90;;;;;;5059870;28;20041;-94
2022/07/27 02:43:08;;;;;;;0.20;0.20;;;14.90;99.90;;;;;;5071289;28;20506;-93
2022/07/27 02:45:34;;;;;;;0.20;0.20;;;14.20;99.90;;;;;;5071647;28;20069;-94
2022/07/27 02:47:59;;;;;;;0.20;0.20;;;14.10;99.90;;;;;;5060138;28;20116;-93
2022/07/27 02:50:25;;;;;;;0.20;0.20;;;14.20;99.90;;;;;;5067675;28;20485;-93
2022/07/27 02:52:51;;;;;;;0.20;0.20;;;14.10;99.90;;;;;;5065875;28;20387;-91
2022/07/27 02:55:16;;;;;;;0.20;0.20;;;14.20;99.90;;;;;;5097739;28;20056;-91
2022/07/27 02:57:42;;;;;;;0.20;0.20;;;14.20;99.90;;;;;;5088446;28;20086;-92
2022/07/27 03:00:11;;;;;;;0.20;0.20;;;14.10;99.90;;;;;;5069944;28;20056;-92
2022/07/27 03:02:38;;;;;;;0.10;0.10;;;14.20;99.90;;;;;;5057995;28;20130;-92
2022/07/27 03:05:08;;;;;;;0.20;0.20;;;14.20;99.90;;;;;;5069534;28;20138;-90
2022/07/27 03:07:34;;;;;;;0.20;0.20;;;14.10;99.90;;;;;;5075685;28;20720;-91
2022/07/27 03:09:59;;;;;;;0.20;0.20;;;14.10;99.90;;;;;;5055459;28;20047;-90
2022/07/27 03:12:25;;;;;;;0.20;0.20;;;14.10;99.90;;;;;;5074114;28;20443;-92
2022/07/27 03:14:51;;;;;;;0.10;0.10;;;14.20;99.90;;;;;;5076065;28;20076;-92
2022/07/27 03:17:16;;;;;;;0.20;0.20;;;14.10;99.90;;;;;;5075942;28;20051;-91
2022/07/27 03:19:42;;;;;;;0.20;0.20;;;14.10;99.90;;;;;;5071918;28;20037;-93
2022/07/27 03:22:08;;;;;;;0.20;0.20;;;14.20;99.90;;;;;;5064711;28;20752;-90
2022/07/27 03:24:33;;;;;;;0.13;0.13;;;14.20;99.90;;;;;;5058650;28;20404;-92
2022/07/27 03:26:59;;;;;;;0.20;0.20;;;14.20;99.90;;;;;;5058320;28;20044;-91
2022/07/27 03:29:25;;;;;;;0.10;0.10;;;14.20;99.90;;;;;;5067596;28;20476;-93
2022/07/27 03:31:50;;;;;;;0.10;0.10;;;14.20;99.90;;;;;;5069633;28;20077;-92
2022/07/27 03:34:16;;;;;;;0.20;0.20;;;14.20;99.90;;;;;;5061648;28;20370;-92
2022/07/27 03:36:42;;;;;;;0.10;0.10;;;14.20;99.90;;;;;;5067934;28;20473;-93
2022/07/27 03:39:08;;;;;;;0.20;0.20;;;14.20;99.90;;;;;;5067382;28;20041;-92
2022/07/27 03:41:34;;;;;;;0.20;0.20;;;14.20;99.90;;;;;;5073589;28;20051;-92
2022/07/27 03:43:59;;;;;;;0.20;0.20;;;14.30;99.90;;;;;;5079065;28;20040;-91
2022/07/27 03:46:25;;;;;;;0.10;0.10;;;14.20;99.90;;;;;;5065582;28;20049;-92
2022/07/27 03:48:51;;;;;;;0.20;0.20;;;14.30;99.90;;;;;;5056791;28;20460;-92
2022/07/27 03:51:16;;;;;;;0.20;0.20;;;14.70;99.90;;;;;;5070008;28;20047;-90
2022/07/27 03:53:42;;;;;;;0.13;0.13;;;14.30;99.90;;;;;;5063945;28;20033;-91
2022/07/27 03:56:10;;;;;;;0.20;0.20;;;14.30;99.90;;;;;;5064663;28;20090;-90
2022/07/27 03:58:36;;;;;;;0.13;0.13;;;14.20;99.90;;;;;;5062238;28;20052;-92
2022/07/27 04:01:01;;;;;;;0.13;0.13;;;14.20;99.90;;;;;;5082590;28;20167;-91
2022/07/27 04:03:30;;;;;;;0.20;0.20;;;14.20;99.90;;;;;;5071452;28;20041;-93
2022/07/27 04:05:55;;;;;;;0.10;0.10;;;14.20;99.90;;;;;;5062516;28;20101;-92
2022/07/27 04:08:21;;;;;;;0.10;0.10;;;14.20;99.90;;;;;;5058805;28;20036;-90
2022/07/27 04:10:47;;;;;;;0.20;0.20;;;14.20;99.90;;;;;;5062990;28;20057;-91
2022/07/27 04:13:13;;;;;;;0.10;0.10;;;14.30;99.90;;;;;;5059862;28;20044;-90
2022/07/27 04:15:38;;;;;;;0.20;0.20;;;14.20;99.90;;;;;;5074518;28;20048;-91
2022/07/27 04:18:04;;;;;;;0.20;0.20;;;14.30;99.90;;;;;;5083438;28;20044;-91
2022/07/27 04:20:30;;;;;;;0.10;0.10;;;14.20;99.90;;;;;;5054226;28;20086;-90
2022/07/27 04:22:55;;;;;;;0.10;0.10;;;14.20;99.90;;;;;;5057595;28;20332;-92
2022/07/27 04:25:21;;;;;;;0.20;0.20;;;14.20;99.90;;;;;;5070058;28;20072;-90
2022/07/27 04:27:47;;;;;;;0.20;0.20;;;14.30;99.90;;;;;;5065286;28;20381;-91
2022/07/27 04:30:15;;;;;;;0.10;0.10;;;14.30;99.90;;;;;;5069627;28;20049;-88
2022/07/27 04:32:41;;;;;;;0.17;0.17;;;14.30;99.90;;;;;;5071684;28;20033;-89
2022/07/27 04:35:07;;;;;;;0.20;0.20;;;14.30;99.90;;;;;;5071562;28;20044;-92
2022/07/27 04:37:33;;;;;;;0.20;0.20;;;14.30;99.90;;;;;;5066777;28;20041;-90
2022/07/27 04:39:59;;;;;;;0.17;0.17;;;14.30;99.90;;;;;;5068742;28;20056;-88
2022/07/27 04:42:25;;;;;;;0.20;0.20;;;14.30;99.90;;;;;;5078459;28;20397;-90
2022/07/27 04:44:51;;;;;;;0.20;0.20;;;14.30;99.90;;;;;;5085914;28;20140;-93
2022/07/27 04:47:16;;;;;;;0.10;0.10;;;14.30;99.90;;;;;;5062349;28;20052;-92
2022/07/27 04:49:43;;;;;;;0.10;0.10;;;14.30;99.90;;;;;;5076006;28;20587;-91
2022/07/27 04:52:09;;;;;;;0.20;0.20;;;14.40;99.90;;;;;;5074509;28;20107;-93
2022/07/27 04:54:34;;;;;;;0.20;0.20;;;14.30;99.90;;;;;;5070627;28;20084;-92
2022/07/27 04:57:00;;;;;;;0.20;0.20;;;14.40;99.90;;;;;;5074502;28;20037;-90
2022/07/27 04:59:25;;;;;;;0.20;0.20;;;14.40;99.90;;;;;;5061151;28;20079;-91
2022/07/27 05:01:57;;;;;;;0.10;0.10;;;14.40;99.90;;;;;;5061820;28;20559;-92
2022/07/27 05:04:22;;;;;;;0.20;0.20;;;14.40;99.90;;;;;;5060098;28;20451;-88
2022/07/27 05:06:48;;;;;;;0.20;0.20;;;14.40;99.90;;;;;;5069584;28;20036;-90
2022/07/27 05:09:14;;;;;;;0.10;0.10;;;14.50;99.90;;;;;;5088783;28;20090;-88
2022/07/27 05:11:39;;;;;;;0.20;0.20;;;14.50;99.90;;;;;;5076823;28;20070;-90
2022/07/27 05:14:05;;;;;;;0.20;0.20;;;14.50;99.90;;;;;;5064985;28;20499;-90
2022/07/27 05:16:30;;;;;;;0.10;0.10;;;14.50;99.90;;;;;;5057520;28;20052;-91
2022/07/27 05:18:56;;;;;;;0.20;0.20;;;14.60;99.90;;;;;;5065112;28;20045;-91
2022/07/27 05:21:26;;;;;;;0.20;0.20;;;14.90;99.90;;;;;;5072342;28;20041;-91
2022/07/27 05:23:51;;;;;;;0.20;0.20;;;14.60;99.90;;;;;;5071647;28;20044;-93
2022/07/27 05:26:17;;;;;;;0.20;0.20;;;14.60;99.90;;;;;;5086157;28;20037;-89
2022/07/27 05:28:43;;;;;;;0.10;0.10;;;14.70;99.90;;;;;;5057272;28;20059;-88
2022/07/27 05:31:08;;;;;;;0.20;0.20;;;14.80;99.90;;;;;;5059709;28;20055;-89
2022/07/27 05:33:34;;;;;;;0.20;0.20;;;14.70;99.90;;;;;;5085977;28;20040;-89
2022/07/27 05:35:59;;;;;;;0.10;0.10;;;14.70;99.90;;;;;;5063409;28;20044;-92
2022/07/27 05:38:25;;;;;;;0.20;0.20;;;14.70;99.90;;;;;;5072165;28;20077;-90
2022/07/27 05:40:52;;;;;;;0.20;0.20;;;14.80;99.90;;;;;;5069466;28;20127;-90
2022/07/27 05:43:17;;;;;;;0.20;0.20;;;14.80;99.90;;;;;;5061003;28;20048;-90
2022/07/27 05:45:43;;;;;;;0.10;0.10;;;14.80;99.90;;;;;;5066710;28;20063;-91
2022/07/27 05:48:09;;;;;;;0.10;0.10;;;14.80;99.90;;;;;;5063410;28;20448;-92
2022/07/27 05:50:35;;;;;;;0.17;0.17;;;14.80;99.90;;;;;;5078932;28;20396;-89
2022/07/27 05:53:00;;;;;;;0.20;0.20;;;14.90;99.90;;;;;;5066505;28;20041;-89
2022/07/27 05:55:26;;;;;;;0.13;0.13;;;14.90;99.90;;;;;;5066640;28;20047;-84
2022/07/27 05:57:51;;;;;;;0.20;0.20;;;14.90;99.90;;;;;;5076234;28;20856;-84
2022/07/27 06:00:20;;;;;;;0.20;0.20;;;14.90;99.90;;;;;;5067658;28;20045;-82
2022/07/27 06:02:45;;;;;;;0.20;0.20;;;14.90;99.90;;;;;;5049849;28;20075;-84
2022/07/27 06:05:11;;;;;;;0.20;0.20;;;14.90;99.90;;;;;;5053616;28;20439;-84
2022/07/27 06:10:21;;;;;;;0.10;0.10;;;14.90;99.90;;;;;;5073159;28;20044;-85
2022/07/27 06:12:47;;;;;;;0.10;0.10;;;14.90;99.90;;;;;;5071948;28;20051;-84
2022/07/27 06:15:13;;;;;;;0.20;0.20;;;14.90;99.90;;;;;;5071276;28;20055;-84
2022/07/27 06:17:41;;;;;;;0.15;0.15;;;15.00;99.90;;;;;;5061256;28;20049;-84
2022/07/27 06:20:07;;;;;;;0.20;0.20;;;15.00;99.90;;;;;;5062874;28;20036;-84
2022/07/27 06:22:50;;;;;;;0.20;0.20;;;15.00;99.90;;;;;;5073190;28;20041;-84
2022/07/27 06:25:18;;;;;;;0.10;0.10;;;15.00;99.90;;;;;;5060996;28;20043;-84
2022/07/27 06:27:44;;;;;;;0.20;0.20;;;15.00;99.90;;;;;;5050226;28;20044;-82
2022/07/27 06:30:12;;;;;;;0.10;0.10;;;15.10;99.90;;;;;;5077878;28;20040;-84
2022/07/27 06:32:38;;;;;;;0.20;0.20;;;15.10;99.90;;;;;;5063158;28;20099;-84
2022/07/27 06:35:04;;;;;;;0.10;0.10;;;15.20;99.90;;;;;;5052814;28;20097;-85
2022/07/27 06:37:31;;;;;;;0.10;0.10;;;15.20;99.90;;;;;;5055326;28;20048;-84
2022/07/27 06:39:59;;;;;;;0.20;0.20;;;15.20;99.90;;;;;;5049451;28;20056;-83
2022/07/27 06:42:25;;;;;;;0.20;0.20;;;15.40;99.90;;;;;;5049565;28;20037;-83
2022/07/27 06:44:51;;;;;;;0.20;0.20;;;15.40;99.90;;;;;;5057844;28;20407;-83
2022/07/27 06:47:17;;;;;;;0.10;0.10;;;15.50;99.90;;;;;;5061929;28;20040;-93
2022/07/27 06:49:42;;;;;;;0.10;0.10;;;15.60;99.90;;;;;;5068577;28;20541;-92
2022/07/27 06:52:08;;;;;;;0.20;0.20;;;15.60;99.90;;;;;;5066727;28;20087;-85
2022/07/27 06:54:34;;;;;;;0.20;0.20;;;15.60;99.90;;;;;;5072177;28;20364;-84
2022/07/27 06:57:02;;;;;;;0.20;0.20;;;15.70;99.90;;;;;;5062022;28;20070;-86
2022/07/27 06:59:30;;;;;;;0.20;0.20;;;15.80;99.90;;;;;;5034429;28;1094401;-84
2022/07/27 07:01:56;;;;;;;0.20;0.20;;;15.90;99.90;;;;;;5060809;28;20053;-85
2022/07/27 07:04:21;;;;;;;0.20;0.20;;;15.90;99.90;;;;;;5064401;28;20178;-88
2022/07/27 07:06:47;;;;;;;0.20;0.20;;;15.90;99.90;;;;;;5056814;28;20381;-89
2022/07/27 07:09:12;;;;;;;0.20;0.20;;;16.00;99.90;;;;;;5068713;28;20040;-85
2022/07/27 07:11:38;;;;;;;0.20;0.20;;;16.00;99.90;;;;;;5072749;28;20036;-87
2022/07/27 07:14:09;;;;;;;0.20;0.20;;;16.00;99.90;;;;;;5057417;28;20079;-88
2022/07/27 07:16:35;;;;;;;;;;;16.10;99.90;;;;;;5059589;28;20083;-89
2022/07/27 07:19:00;;;;;;;0.15;0.15;;;16.10;99.90;;;;;;5061102;28;19968;-86
2022/07/27 07:21:26;;;;;;;0.10;0.10;;;16.20;99.90;;;;;;5067856;28;20056;-87
2022/07/27 07:23:52;;;;;;;0.10;0.10;;;16.20;99.90;;;;;;5070074;28;20040;-85
2022/07/27 07:26:17;;;;;;;0.20;0.20;;;16.20;99.90;;;;;;5068774;28;20097;-84
2022/07/27 07:28:43;;;;;;;0.20;0.20;;;16.30;99.90;;;;;;5059322;28;20508;-83
2022/07/27 07:31:09;;;;;;;0.15;0.15;;;16.30;99.90;;;;;;5051892;28;20128;-84
2022/07/27 07:33:34;;;;;;;0.20;0.20;;;16.30;99.90;;;;;;5049292;28;20052;-82
2022/07/27 07:36:01;;;;;;;0.20;0.20;;;16.10;99.90;;;;;;5055916;28;20041;-91
2022/07/27 07:38:26;;;;;;;0.20;0.20;;;16.10;99.90;;;;;;5054888;28;20130;-86
2022/07/27 07:40:52;;;;;;;0.17;0.17;;;16.00;99.90;;;;;;5068606;28;20044;-82
2022/07/27 07:43:18;;;;;;;0.13;0.13;;;16.00;99.90;;;;;;5086208;28;20369;-83
2022/07/27 07:45:44;;;;;;;0.10;0.10;;;16.00;99.90;;;;;;5063221;28;20094;-84
2022/07/27 07:48:10;;;;;;;0.20;0.20;;;15.90;99.90;;;;;;5059036;28;20037;-84
2022/07/27 07:50:37;;;;;;;0.20;0.20;;;15.90;99.90;;;;;;5050705;28;20394;-86
2022/07/27 07:53:03;;;;;;;0.20;0.20;;;15.90;99.90;;;;;;5064794;28;20082;-88
2022/07/27 07:55:28;;;;;;;0.20;0.20;;;15.90;99.90;;;;;;5060840;28;20088;-89
2022/07/27 07:57:58;;;;;;;0.10;0.10;;;15.80;99.90;;;;;;5050571;28;20438;-88
2022/07/27 08:00:24;;;;;;;0.20;0.20;;;15.90;99.90;;;;;;5051149;28;20515;-90
2022/07/27 08:02:56;;;;;;;0.10;0.10;;;15.90;99.90;;;;;;5056450;28;20084;-88
2022/07/27 08:05:23;;;;;;;0.20;0.20;;;15.90;99.90;;;;;;5052742;28;20041;-84
2022/07/27 08:07:50;;;;;;;0.10;0.10;;;16.00;99.90;;;;;;5053465;28;20528;-84
2022/07/27 08:10:17;;;;;;;0.15;0.15;;;16.00;99.90;;;;;;5062812;28;20074;-85
2022/07/27 08:12:46;;;;;;;0.10;0.10;;;16.00;99.90;;;;;;5067938;28;20052;-88
2022/07/27 08:15:13;;;;;;;0.15;0.15;;;16.10;99.90;;;;;;5064934;28;20121;-85
2022/07/27 08:17:39;;;;;;;0.20;0.20;;;16.20;99.90;;;;;;5053162;28;20676;-87
2022/07/27 08:20:06;;;;;;;0.20;0.20;;;16.40;99.90;;;;;;5064013;28;20048;-84
2022/07/27 08:22:32;;;;;;;0.10;0.10;;;16.20;99.90;;;;;;5060812;28;20484;-84
2022/07/27 08:24:57;;;;;;;0.10;0.10;;;16.50;99.90;;;;;;5069760;28;20044;-88
2022/07/27 08:27:23;;;;;;;0.20;0.20;;;16.30;99.90;;;;;;5053181;28;20120;-88
2022/07/27 08:29:51;;;;;;;0.20;0.20;;;16.30;99.90;;;;;;5053415;28;20686;-90
2022/07/27 08:32:17;;;;;;;0.10;0.10;;;16.30;99.90;;;;;;5056905;28;20037;-87
2022/07/27 08:34:43;;;;;;;0.20;0.20;;;16.40;99.90;;;;;;5068128;28;20045;-87
2022/07/27 08:37:08;;;;;;;0.20;0.20;;;16.40;99.90;;;;;;5064210;28;20427;-88
2022/07/27 08:39:34;;;;;;;0.15;0.15;;;16.40;99.90;;;;;;5057251;28;20491;-89
2022/07/27 08:42:06;;;;;;;0.20;0.20;;;16.50;99.90;;;;;;5063300;28;20503;-87
2022/07/27 08:44:33;;;;;;;0.10;0.10;;;16.50;99.90;;;;;;5071200;28;20059;-87
2022/07/27 08:47:02;;;;;;;0.20;0.20;;;16.60;99.90;;;;;;5073956;28;20041;-85
2022/07/27 08:49:29;;;;;;;0.20;0.20;;;16.70;99.90;;;;;;5053735;28;20044;-84
2022/07/27 08:51:55;;;;;;;0.10;0.10;;;16.80;99.90;;;;;;5067613;28;20136;-86
2022/07/27 08:54:21;;;;;;;0.17;0.17;;;16.80;99.90;;;;;;5068021;28;20133;-85
2022/07/27 08:56:47;;;;;;;0.20;0.20;;;16.90;99.90;;;;;;5055797;28;20041;-85
2022/07/27 08:59:13;;;;;;;0.20;0.20;;;16.90;99.90;;;;;;5053658;28;20531;-85
2022/07/27 09:01:39;;;;;;;0.20;0.20;;;17.00;99.90;;;;;;5064924;28;20056;-85
2022/07/27 09:04:06;;;;;;;0.10;0.10;;;17.10;99.90;;;;;;5068175;28;20071;-85
2022/07/27 09:06:44;;;;;;;0.10;0.10;;;17.10;99.90;;;;;;5065792;28;20049;-86
2022/07/27 09:09:15;;;;;;;0.20;0.20;;;17.20;99.90;;;;;;5067739;28;20052;-85
2022/07/27 09:11:41;;;;;;;0.20;0.20;;;17.30;99.90;;;;;;5048904;28;20045;-86
2022/07/27 09:14:10;;;;;;;0.20;0.20;;;17.30;99.90;;;;;;5062830;28;20121;-86
2022/07/27 09:16:35;;;;;;;0.10;0.10;;;17.40;99.90;;;;;;5088695;28;20072;-85
2022/07/27 09:19:07;;;;;;;0.10;0.10;;;17.40;99.90;;;;;;5070808;28;20358;-84
2022/07/27 09:21:35;;;;;;;0.20;0.20;;;17.50;99.90;;;;;;5069558;28;20612;-86
2022/07/27 09:24:13;;;;;;;0.20;0.20;;;17.50;99.90;;;;;;5073464;28;20601;-86
2022/07/27 09:26:38;;;;;;;0.20;0.20;;;17.60;99.90;;;;;;5070757;28;20055;-88
2022/07/27 09:29:13;;;;;;;0.20;0.20;;;17.70;99.90;;;;;;5069825;28;20606;-89
2022/07/27 09:31:45;;;;;;;0.20;0.20;;;17.70;99.90;;;;;;5067093;28;20048;-93
2022/07/27 09:34:24;;;;;;;0.20;0.20;;;17.70;99.90;;;;;;5061578;28;20489;-91
2022/07/27 09:36:53;;;;;;;0.20;0.20;;;17.80;99.90;;;;;;5057540;28;20362;-92
2022/07/27 09:39:21;;;;;;;0.10;0.10;;;17.90;99.90;;;;;;5070497;28;20064;-88
2022/07/27 09:42:21;;;;;;;0.10;0.10;;;17.90;99.90;;;;;;5060133;28;20056;-89
2022/07/27 09:44:46;;;;;;;0.20;0.20;;;17.90;99.90;;;;;;5064015;28;20544;-87
2022/07/27 09:47:26;;;;;;;0.20;0.20;;;18.00;99.90;;;;;;5061404;28;20097;-87
2022/07/27 09:49:57;;;;;;;0.20;0.20;;;18.00;99.90;;;;;;5064158;28;20076;-87
2022/07/27 09:52:32;;;;;;;0.20;0.20;;;18.20;99.90;;;;;;5061003;28;20044;-86
2022/07/27 09:55:04;;;;;;;0.13;0.13;;;18.10;99.90;;;;;;5060617;28;20032;-85
2022/07/27 09:57:29;;;;;;;0.20;0.20;;;18.20;99.90;;;;;;5067200;28;20407;-92
2022/07/27 10:00:14;;;;;;;0.20;0.20;;;18.20;99.90;;;;;;5072926;28;20052;-87
2022/07/27 10:02:41;;;;;;;0.20;0.20;;;18.30;99.90;;;;;;5064544;28;20037;-84
2022/07/27 10:05:08;;;;;;;0.13;0.13;;;18.30;99.90;;;;;;5072747;28;20388;-84
2022/07/27 10:07:37;;;;;;;0.20;0.20;;;18.30;99.90;;;;;;5065562;28;20049;-84
2022/07/27 10:10:03;;;;;;;0.20;0.20;;;18.30;99.90;;;;;;5061815;28;20045;-85
2022/07/27 10:12:29;;;;;;;0.20;0.20;;;18.30;99.90;;;;;;5065158;28;20033;-86
2022/07/27 10:14:55;;;;;;;0.20;0.20;;;18.30;99.90;;;;;;5073554;28;20040;-88
2022/07/27 10:17:20;;;;;;;0.20;0.20;;;18.30;99.90;;;;;;5073910;28;20041;-87
2022/07/27 10:19:49;;;;;;;0.20;0.20;;;18.30;99.90;;;;;;5069565;28;20106;-87
2022/07/27 10:22:15;;;;;;;0.17;0.17;;;18.20;99.90;;;;;;5068887;28;20053;-85
2022/07/27 10:24:43;;;;;;;0.10;0.10;;;18.10;99.90;;;;;;5061901;28;20051;-85
2022/07/27 10:27:28;;;;;;;0.20;0.20;;;18.20;99.90;;;;;;5070754;28;20043;-84
2022/07/27 10:29:54;;;;;;;0.20;0.20;;;18.20;99.90;;;;;;5064569;28;20104;-89
2022/07/27 10:32:31;;;;;;;0.10;0.10;;;18.30;99.90;;;;;;5071424;28;20052;-85
2022/07/27 10:34:58;;;;;;;0.20;0.20;;;18.20;99.90;;;;;;5058479;28;20053;-85
2022/07/27 10:37:29;;;;;;;0.20;0.20;;;18.20;99.90;;;;;;5073660;28;20365;-90
2022/07/27 10:42:43;;;;;;;0.20;0.20;;;18.10;99.90;;;;;;5065665;28;20329;-85
2022/07/27 10:45:14;;;;;;;0.10;0.10;;;18.20;99.90;;;;;;5052328;28;20045;-89
2022/07/27 10:47:39;;;;;;;;;;;18.30;99.90;;;;;;5068629;28;20075;-86
2022/07/27 10:50:14;;;;;;;0.20;0.20;;;18.40;99.90;;;;;;5065845;28;19938;-86
2022/07/27 10:52:50;;;;;;;0.20;0.20;;;18.40;99.90;;;;;;5069937;28;20056;-84
2022/07/27 10:55:31;;;;;;;0.20;0.20;;;18.40;99.90;;;;;;5070200;28;20245;-86
2022/07/27 10:58:01;;;;;;;0.20;0.20;;;18.40;99.90;;;;;;5076210;28;20097;-84
2022/07/27 11:00:49;;;;;;;0.17;0.17;;;18.50;99.90;;;;;;5077668;28;20049;-88
2022/07/27 11:03:22;;;;;;;0.10;0.10;;;18.40;99.90;;;;;;5071882;28;20235;-86
2022/07/27 11:06:18;;;;;;;0.20;0.20;;;18.60;99.90;;;;;;5072900;28;20056;-86
2022/07/27 11:08:46;;;;;;;0.20;0.20;;;18.60;99.90;;;;;;5067199;28;20617;-89
2022/07/27 11:11:17;;;;;;;0.20;0.20;;;18.60;99.90;;;;;;5052758;28;20126;-89
2022/07/27 11:13:44;;;;;;;;;;;18.50;99.90;;;;;;5052853;28;20045;-88
2022/07/27 11:16:12;;;;;;;0.20;0.20;;;18.60;99.90;;;;;;5061314;28;19927;-88
2022/07/27 11:18:40;;;;;;;0.10;0.10;;;18.50;99.90;;;;;;5067447;28;20098;-88
2022/07/27 11:21:24;;;;;;;0.20;0.20;;;18.50;99.90;;;;;;5070625;28;20063;-88
2022/07/27 11:24:15;;;;;;;0.20;0.20;;;18.50;99.90;;;;;;5070554;28;20083;-85
2022/07/27 11:26:51;;;;;;;0.13;0.13;;;18.50;99.90;;;;;;5068815;28;20055;-86
2022/07/27 11:29:20;;;;;;;0.10;0.10;;;18.60;99.90;;;;;;5066713;28;20480;-85
2022/07/27 11:31:47;;;;;;;0.10;0.10;;;18.70;99.90;;;;;;5068255;28;20511;-88
2022/07/27 11:34:16;;;;;;;0.20;0.20;;;18.80;99.90;;;;;;5073318;28;20106;-88
2022/07/27 11:36:45;;;;;;;0.15;0.15;;;18.80;99.90;;;;;;5068564;28;20560;-86
2022/07/27 11:39:24;;;;;;;0.10;0.10;;;18.80;99.90;;;;;;5071327;28;20058;-85
2022/07/27 11:41:55;;;;;;;0.20;0.20;;;18.80;99.90;;;;;;5070337;28;20048;-86
2022/07/27 11:44:21;;;;;;;0.20;0.20;;;18.80;99.80;;;;;;5071493;28;20123;-86
2022/07/27 11:46:49;;;;;;;0.20;0.20;;;18.90;99.90;;;;;;5069864;28;20120;-87
2022/07/27 11:49:25;;;;;;;0.20;0.20;;;18.90;99.70;;;;;;5053034;28;20052;-87
2022/07/27 11:51:52;;;;;;;0.20;0.20;;;19.00;99.80;;;;;;5064491;28;20052;-87
2022/07/27 11:54:18;;;;;;;0.20;0.20;;;19.10;99.90;;;;;;5070320;28;20492;-87
2022/07/27 11:56:47;;;;;;;0.10;0.10;;;19.20;99.90;;;;;;5068650;28;20115;-88
2022/07/27 11:59:21;;;;;;;0.20;0.20;;;19.10;99.90;;;;;;5064392;28;20048;-87
2022/07/27 12:01:54;;;;;;;0.20;0.20;;;19.20;99.90;;;;;;5066681;28;20068;-89
2022/07/27 12:04:32;;;;;;;0.10;0.10;;;19.30;99.90;;;;;;5072277;28;20036;-86
2022/07/27 12:06:59;;;;;;;0.20;0.20;;;19.30;99.90;;;;;;5054222;28;20041;-89
2022/07/27 12:09:26;;;;;;;0.20;0.20;;;19.40;99.90;;;;;;5066277;28;20044;-88
2022/07/27 12:11:54;;;;;;;0.20;0.20;;;19.40;99.90;;;;;;5064525;28;20049;-86
2022/07/27 12:14:35;;;;;;;0.10;0.10;;;19.30;99.90;;;;;;5068616;28;20049;-87
2022/07/27 12:17:08;;;;;;;0.20;0.20;;;19.30;99.90;;;;;;5070135;28;20048;-88
2022/07/27 12:19:34;;;;;;;0.20;0.20;;;19.20;99.90;;;;;;5069967;28;20071;-89
2022/07/27 12:22:00;;;;;;;0.20;0.20;;;19.30;99.90;;;;;;5078498;28;20044;-86
2022/07/27 12:24:53;;;;;;;0.20;0.20;;;19.20;99.90;;;;;;5073620;28;20041;-87
2022/07/27 12:27:20;;;;;;;0.20;0.20;;;19.20;99.90;;;;;;5066356;28;20496;-88
2022/07/27 12:29:58;;;;;;;0.20;0.20;;;19.30;99.90;;;;;;5069711;28;20050;-88
2022/07/27 12:32:25;;;;;;;0.20;0.20;;;19.30;99.90;;;;;;5072077;28;20119;-87
2022/07/27 12:34:51;;;;;;;0.20;0.20;;;19.40;99.90;;;;;;5083259;28;20086;-87
2022/07/27 12:37:17;;;;;;;0.20;0.20;;;19.30;99.40;;;;;;5072262;28;20448;-86
2022/07/27 12:39:44;;;;;;;0.20;0.20;;;19.30;99.70;;;;;;5066145;28;20048;-86
2022/07/27 12:42:11;;;;;;;0.20;0.20;;;19.40;99.80;;;;;;5049903;28;20049;-87
2022/07/27 12:44:40;;;;;;;0.20;0.20;;;19.50;99.90;;;;;;5051023;28;20077;-85
2022/07/27 12:50:09;;;;;;;0.20;0.20;;;19.80;99.20;;;;;;5058149;28;20484;-85
2022/07/27 12:52:39;;;;;;;0.10;0.10;;;19.90;99.00;;;;;;5069621;28;20091;-88
2022/07/27 12:55:07;;;;;;;0.20;0.20;;;20.00;98.90;;;;;;5060917;28;20044;-83
2022/07/27 12:57:32;;;;;;;0.20;0.20;;;20.20;98.50;;;;;;5062125;28;20476;-84
2022/07/27 12:59:59;;;;;;;0.10;0.10;;;20.20;98.40;;;;;;5050494;28;20098;-86
2022/07/27 13:02:24;;;;;;;0.20;0.20;;;20.20;98.10;;;;;;5060430;28;20501;-89